Weather History for Middleton, WI

Change the Weather History Date:

Tuesday, March 18, 2014

  Actual Average (KMSN) Record (KMSN)
Temperature  
Mean Temperature 37 °F 35 °F  
Max Temperature 47 °F 44 °F 81 °F (2012)
Min Temperature 27 °F 26 °F -2 °F (1959)
Degree Days  
Heating Degree Days 28 30  
Month to date heating degree days 606  
Since 1 July heating degree days 6092  
Cooling Degree Days 0 0  
Month to date cooling degree days 0  
Year to date cooling degree days 0  
Moisture  
Dew Point 29 °F    
Average Humidity 71    
Maximum Humidity 87    
Minimum Humidity 47    
Precipitation  
Precipitation 0.01 in 0.07 in 0.80 in (1971)
Month to date precipitation 1.12  
Year to date precipitation 3.80  
Snow  
Snow 0.00 in 0.20 in 12.00 in (1971)
Month to date snowfall 4.7  
Since 1 July snowfall 45.8  
Snow Depth -    
Sea Level Pressure  
Sea Level Pressure 29.75 in    
Wind  
Wind Speed 8 mph (SE)    
Max Wind Speed 15 mph    
Max Gust Speed 20 mph    
Visibility 9 miles    
Events      
T = Trace of Precipitation, MM = Missing Value Source: NWS Daily Summary

Daily Weather History Graph

Daily Weather History Graph

Search for Another Location

Airport:

Trip Planner

Search our weather history database for the weather conditions in past years. The results will help you decide how hot, cold, wet, or windy it might be!

Date:

Astronomy

Mar. 18, 2014 Rise Set
Actual Time 7:04 AM CDT 7:08 PM CDT
Civil Twilight 6:36 AM CDT 7:36 PM CDT
Nautical Twilight 6:03 AM CDT 8:09 PM CDT
Astronomical Twilight 5:29 AM CDT 8:43 PM CDT
Moon 9:29 PM CDT (3/18) 7:50 AM CDT (3/18)
Length of Visible Light 12h 59m
Length of Day
12h 03m
Waning Gibbous, 96% of the Moon is Illuminated
Mar 18
Waning Gibbous
Mar 23
Last Quarter
Mar 30
New
Apr 7
First Quarter
Apr 15
Full

Hourly Weather History & Observations

Time (CDT) Temp. Windchill Dew Point Humidity Pressure Visibility Wind Dir Wind Speed Gust Speed Precip Events Conditions
12:15 AM 31.5 °F 24.2 °F 24.3 °F 75% 29.76 in 10.0 mi SE 8.1 mph - N/A   Clear
12:35 AM 31.8 °F 24.6 °F 24.8 °F 75% 29.76 in 10.0 mi SE 8.1 mph - N/A   Clear
12:55 AM 31.8 °F 25.4 °F 25.3 °F 77% 29.76 in 10.0 mi SSE 6.9 mph - N/A   Clear
1:15 AM 32.0 °F 25.6 °F 25.2 °F 76% 29.76 in 10.0 mi SSE 6.9 mph - N/A   Clear
1:35 AM 32.2 °F 25.8 °F 25.3 °F 76% 29.76 in 10.0 mi SSE 6.9 mph - N/A   Clear
1:55 AM 32.2 °F 26.7 °F 25.0 °F 75% 29.77 in 10.0 mi SSE 5.8 mph - N/A   Clear
2:15 AM 32.0 °F 26.4 °F 24.6 °F 74% 29.77 in 10.0 mi SSE 5.8 mph - N/A   Clear
2:35 AM 31.8 °F 26.2 °F 24.8 °F 75% 29.77 in 10.0 mi ESE 5.8 mph - N/A   Clear
2:55 AM 30.9 °F 27.5 °F 24.6 °F 77% 29.77 in 10.0 mi ESE 3.5 mph - N/A   Clear
3:15 AM 29.1 °F 24.1 °F 24.3 °F 82% 29.77 in 10.0 mi ESE 4.6 mph - N/A   Clear
3:35 AM 29.7 °F 23.7 °F 24.6 °F 81% 29.77 in 10.0 mi East 5.8 mph - N/A   Clear
3:55 AM 29.1 °F 22.1 °F 24.3 °F 82% 29.76 in 10.0 mi ESE 6.9 mph - N/A   Clear
4:15 AM 28.9 °F 23.9 °F 24.3 °F 83% 29.76 in 10.0 mi ESE 4.6 mph - N/A   Clear
4:35 AM 28.4 °F 22.2 °F 23.9 °F 83% 29.76 in 10.0 mi SE 5.8 mph - N/A   Clear
4:55 AM 29.3 °F 23.2 °F 25.0 °F 84% 29.76 in 10.0 mi SE 5.8 mph - N/A   Clear
5:15 AM 29.3 °F 23.2 °F 25.0 °F 84% 29.76 in 10.0 mi SSE 5.8 mph - N/A   Clear
5:35 AM 29.3 °F 22.3 °F 25.0 °F 84% 29.76 in 10.0 mi SE 6.9 mph - N/A   Clear
5:55 AM 28.9 °F 22.8 °F 24.4 °F 83% 29.76 in 10.0 mi SE 5.8 mph - N/A   Clear
6:15 AM 28.4 °F 22.2 °F 24.3 °F 84% 29.76 in 10.0 mi SE 5.8 mph - N/A   Clear
6:35 AM 27.9 °F 21.5 °F 23.9 °F 85% 29.76 in 7.0 mi SE 5.8 mph - N/A   Clear
6:55 AM 28.2 °F 22.0 °F 24.4 °F 86% 29.77 in 7.0 mi SE 5.8 mph - N/A   Clear
7:15 AM 28.6 °F 20.7 °F 25.2 °F 87% 29.77 in 7.0 mi SE 8.1 mph - N/A   Clear
7:35 AM 29.7 °F 22.0 °F 25.9 °F 86% 29.78 in 7.0 mi SE 8.1 mph - N/A   Clear
7:55 AM 30.2 °F 23.4 °F 26.4 °F 86% 29.79 in 7.0 mi SE 6.9 mph - N/A   Clear
8:15 AM 31.1 °F 25.4 °F 27.1 °F 85% 29.79 in 7.0 mi SE 5.8 mph - N/A   Clear
8:35 AM 32.0 °F 25.6 °F 27.5 °F 83% 29.79 in 7.0 mi SE 6.9 mph - N/A   Clear
8:55 AM 32.9 °F 25.9 °F 28.0 °F 82% 29.79 in 7.0 mi SE 8.1 mph - N/A   Clear
9:15 AM 34.9 °F 29.9 °F 28.9 °F 79% 29.80 in 7.0 mi SE 5.8 mph - N/A   Clear
9:35 AM 36.0 °F 30.3 °F 28.9 °F 76% 29.80 in 10.0 mi SE 6.9 mph - N/A   Clear
9:55 AM 37.4 °F 31.4 °F 29.5 °F 73% 29.80 in 10.0 mi SSE 8.1 mph - N/A   Clear
10:15 AM 37.8 °F 29.8 °F 29.3 °F 72% 29.81 in 10.0 mi SSE 12.7 mph - N/A   Clear
10:35 AM 38.8 °F 31.6 °F 29.7 °F 70% 29.81 in 10.0 mi SSE 11.5 mph - N/A   Clear
10:55 AM 40.1 °F 33.6 °F 29.5 °F 66% 29.81 in 10.0 mi South 10.4 mph - N/A   Scattered Clouds
11:15 AM 41.2 °F 34.1 °F 30.0 °F 65% 29.80 in 10.0 mi SE 12.7 mph - N/A   Clear
11:35 AM 42.1 °F 34.9 °F 29.8 °F 62% 29.80 in 10.0 mi SSE 13.8 mph - N/A   Clear
11:55 AM 43.3 °F 37.2 °F 30.4 °F 60% 29.80 in 10.0 mi SSE 11.5 mph - N/A   Clear
12:15 PM 42.1 °F 35.7 °F 30.2 °F 63% 29.78 in 10.0 mi ESE 11.5 mph - N/A   Clear
12:35 PM 44.6 °F 38.8 °F 30.2 °F 57% 29.79 in 10.0 mi ESE 11.5 mph 16.1 mph N/A   Clear
12:55 PM 45.5 °F 39.9 °F 29.8 °F 54% 29.80 in 10.0 mi SE 11.5 mph 18.4 mph N/A   Clear
1:15 PM 46.8 °F - 29.5 °F 51% 29.80 in 10.0 mi SE 10.4 mph 18.4 mph N/A   Clear
1:35 PM 45.7 °F 40.2 °F 29.1 °F 52% 29.80 in 10.0 mi South 11.5 mph - N/A   Clear
1:55 PM 47.1 °F - 28.8 °F 49% 29.79 in 10.0 mi SSE 15.0 mph 18.4 mph N/A   Clear
2:15 PM 47.1 °F - 27.9 °F 47% 29.77 in 10.0 mi SSE 12.7 mph - N/A   Clear
2:35 PM 47.1 °F - 28.6 °F 49% 29.76 in 10.0 mi SE 13.8 mph - N/A   Clear
2:55 PM 46.8 °F - 29.5 °F 51% 29.76 in 10.0 mi SE 12.7 mph 16.1 mph N/A   Clear
3:15 PM 45.7 °F 41.0 °F 30.2 °F 55% 29.75 in 10.0 mi SE 9.2 mph - N/A   Clear
3:35 PM 44.4 °F 38.2 °F 30.2 °F 57% 29.75 in 10.0 mi SE 12.7 mph 18.4 mph N/A   Clear
3:55 PM 44.1 °F 38.1 °F 30.2 °F 58% 29.74 in 10.0 mi SE 11.5 mph 17.3 mph N/A   Scattered Clouds
4:15 PM 44.6 °F 39.2 °F 31.1 °F 59% 29.72 in 10.0 mi ESE 10.4 mph 19.6 mph N/A   Scattered Clouds
4:35 PM 43.7 °F 37.3 °F 31.3 °F 62% 29.70 in 10.0 mi ESE 12.7 mph 17.3 mph N/A   Clear
4:55 PM 44.1 °F 37.7 °F 31.1 °F 60% 29.68 in 10.0 mi ESE 12.7 mph - N/A   Clear
5:15 PM 45.0 °F 39.3 °F 31.3 °F 59% 29.68 in 10.0 mi ESE 11.5 mph 17.3 mph N/A   Clear
5:35 PM 44.1 °F 38.6 °F 30.7 °F 59% 29.68 in 10.0 mi ESE 10.4 mph - N/A   Clear
5:55 PM 42.8 °F 35.8 °F 31.1 °F 63% 29.69 in 10.0 mi ESE 13.8 mph 18.4 mph N/A   Clear
6:15 PM 41.4 °F 34.0 °F 31.1 °F 67% 29.69 in 10.0 mi ESE 13.8 mph - N/A   Scattered Clouds
6:35 PM 41.0 °F 33.9 °F 30.9 °F 67% 29.71 in 10.0 mi ESE 12.7 mph - N/A   Scattered Clouds
6:55 PM 40.5 °F 35.1 °F 31.1 °F 69% 29.71 in 10.0 mi East 8.1 mph - N/A   Mostly Cloudy
7:15 PM 40.3 °F 35.5 °F 31.1 °F 70% 29.71 in 10.0 mi East 6.9 mph - N/A   Scattered Clouds
7:35 PM 40.1 °F 33.6 °F 31.1 °F 70% 29.70 in 10.0 mi East 10.4 mph - N/A   Clear
7:55 PM 40.1 °F 33.6 °F 31.1 °F 70% 29.72 in 10.0 mi East 10.4 mph - N/A   Scattered Clouds
8:15 PM 39.7 °F 36.5 °F 31.1 °F 71% 29.72 in 10.0 mi East 4.6 mph - N/A   Clear
8:30 PM 39.7 °F 35.6 °F 31.1 °F 71% 29.73 in 10.0 mi East 5.8 mph - N/A   Mostly Cloudy
8:55 PM 39.4 °F 35.2 °F 31.1 °F 72% 29.73 in 10.0 mi East 5.8 mph - N/A   Overcast
9:15 PM 40.1 °F 36.1 °F 31.1 °F 70% 29.73 in 10.0 mi East 5.8 mph - N/A   Overcast
9:35 PM 40.1 °F 34.7 °F 31.1 °F 70% 29.72 in 10.0 mi East 8.1 mph - N/A   Overcast
9:55 PM 40.1 °F 36.1 °F 31.1 °F 70% 29.71 in 10.0 mi East 5.8 mph - N/A   Overcast
10:15 PM 39.6 °F 35.4 °F 31.1 °F 72% 29.70 in 10.0 mi East 5.8 mph - N/A   Overcast
10:35 PM 39.4 °F 35.2 °F 32.0 °F 75% 29.69 in 10.0 mi East 5.8 mph - N/A   Overcast
10:55 PM 38.8 °F 33.2 °F 32.9 °F 79% 29.69 in 5.0 mi East 8.1 mph - N/A   Overcast
11:15 PM 38.7 °F 32.9 °F 33.4 °F 81% 29.68 in 7.0 mi East 8.1 mph - 0.01 in   Overcast
11:35 PM 38.3 °F 33.2 °F 34.0 °F 84% 29.68 in 5.0 mi ESE 6.9 mph - 0.01 in   Overcast
11:55 PM 38.3 °F 33.2 °F 34.3 °F 86% 29.67 in 5.0 mi East 6.9 mph - 0.01 in   Overcast